createdAt,value
2018-02-27T00:00:23.013Z,49.20
2018-02-27T00:02:50.520Z,49.20
2018-02-27T00:05:19.585Z,49.30
2018-02-27T00:07:48.361Z,49.30
2018-02-27T00:10:16.466Z,49.20
2018-02-27T00:12:44.540Z,49.20
2018-02-27T00:15:13.377Z,49.10
2018-02-27T00:17:45.827Z,48.80
2018-02-27T00:20:13.332Z,48.50
2018-02-27T00:22:40.917Z,48.30
2018-02-27T00:25:09.217Z,48.00
2018-02-27T00:27:36.864Z,48.00
2018-02-27T00:30:06.114Z,48.00
2018-02-27T00:32:35.864Z,48.00
2018-02-27T00:35:04.637Z,48.00
2018-02-27T00:37:32.942Z,48.00
2018-02-27T00:40:02.005Z,48.00
2018-02-27T00:42:30.257Z,47.90
2018-02-27T00:44:59.167Z,47.90
2018-02-27T00:47:26.752Z,47.90
2018-02-27T00:49:55.732Z,48.10
2018-02-27T00:52:23.429Z,48.30
2018-02-27T00:54:52.097Z,48.60
2018-02-27T00:57:20.177Z,48.80
2018-02-27T00:59:47.694Z,48.70
2018-02-27T01:02:16.387Z,48.70
2018-02-27T01:04:45.580Z,48.70
2018-02-27T01:07:14.236Z,48.90
2018-02-27T01:09:42.532Z,48.80
2018-02-27T01:12:10.023Z,48.90
2018-02-27T01:14:39.965Z,48.90
2018-02-27T01:17:07.457Z,49.00
2018-02-27T01:19:34.907Z,49.10
2018-02-27T01:22:02.714Z,49.60
2018-02-27T01:24:30.181Z,49.90
2018-02-27T01:26:57.663Z,50.00
2018-02-27T01:29:25.957Z,50.00
2018-02-27T01:31:55.081Z,50.10
2018-02-27T01:34:27.991Z,50.10
2018-02-27T01:36:55.456Z,50.10
2018-02-27T01:39:26.856Z,49.90
2018-02-27T01:41:54.792Z,49.90
2018-02-27T01:44:23.112Z,50.00
2018-02-27T01:46:52.672Z,48.60
2018-02-27T01:49:22.625Z,48.50
2018-02-27T01:51:51.397Z,48.50
2018-02-27T01:54:19.322Z,48.40
2018-02-27T01:56:47.119Z,48.40
2018-02-27T01:59:17.201Z,48.60
2018-02-27T02:01:46.084Z,48.70
2018-02-27T02:04:13.554Z,48.60
2018-02-27T02:06:41.577Z,48.70
2018-02-27T02:09:10.556Z,48.90
2018-02-27T02:11:38.857Z,48.70
2018-02-27T02:14:07.153Z,49.50
2018-02-27T02:16:35.504Z,49.40
2018-02-27T02:19:03.777Z,49.60
2018-02-27T02:21:32.020Z,49.40
2018-02-27T02:23:59.564Z,49.20
2018-02-27T02:26:27.505Z,49.30
2018-02-27T02:28:55.337Z,49.50
2018-02-27T02:31:22.818Z,49.50
2018-02-27T02:33:51.881Z,49.70
2018-02-27T02:36:20.905Z,49.80
2018-02-27T02:38:49.338Z,49.90
2018-02-27T02:41:17.255Z,49.90
2018-02-27T02:43:44.970Z,49.90
2018-02-27T02:46:12.420Z,50.00
2018-02-27T02:48:39.941Z,50.10
2018-02-27T02:51:07.387Z,50.10
2018-02-27T02:53:35.247Z,50.00
2018-02-27T02:56:04.013Z,50.10
2018-02-27T02:58:31.928Z,50.10
2018-02-27T03:00:59.768Z,49.70
2018-02-27T03:03:27.589Z,50.10
2018-02-27T03:05:55.559Z,50.20
2018-02-27T03:08:23.020Z,50.20
2018-02-27T03:10:50.476Z,50.30
2018-02-27T03:13:17.945Z,50.30
2018-02-27T03:15:45.413Z,50.50
2018-02-27T03:18:12.896Z,50.70
2018-02-27T03:20:41.142Z,51.10
2018-02-27T03:23:08.919Z,50.90
2018-02-27T03:25:36.404Z,51.10
2018-02-27T03:28:03.865Z,51.20
2018-02-27T03:30:31.781Z,51.30
2018-02-27T03:32:59.253Z,51.50
2018-02-27T03:35:27.325Z,51.50
2018-02-27T03:37:55.741Z,52.10
2018-02-27T03:40:25.574Z,51.80
2018-02-27T03:42:58.253Z,51.90
2018-02-27T03:45:29.118Z,52.00
2018-02-27T03:47:59.218Z,52.10
2018-02-27T03:50:30.849Z,52.10
2018-02-27T03:52:59.985Z,52.30
2018-02-27T03:55:30.588Z,52.30
2018-02-27T03:58:10.806Z,52.30
2018-02-27T04:00:40.065Z,52.30
2018-02-27T04:03:12.779Z,52.30
2018-02-27T04:05:48.684Z,52.50
2018-02-27T04:08:28.283Z,52.30
2018-02-27T04:11:12.365Z,52.40
2018-02-27T04:16:54.864Z,52.40
2018-02-27T04:19:30.504Z,52.50
2018-02-27T04:22:03.821Z,52.70
2018-02-27T04:24:35.460Z,52.70
2018-02-27T04:27:10.054Z,52.60
2018-02-27T04:29:38.428Z,52.60
2018-02-27T04:32:08.777Z,52.70
2018-02-27T04:34:44.356Z,52.60
2018-02-27T04:37:16.604Z,52.60
2018-02-27T04:39:46.309Z,52.50
2018-02-27T04:42:23.042Z,52.50
2018-02-27T04:44:52.613Z,52.50
2018-02-27T04:47:23.876Z,52.50
2018-02-27T04:49:58.194Z,52.60
2018-02-27T04:52:42.524Z,52.70
2018-02-27T04:55:11.462Z,52.70
2018-02-27T04:57:40.229Z,52.90
2018-02-27T05:00:10.107Z,52.80
2018-02-27T05:02:41.537Z,52.80
2018-02-27T05:05:19.760Z,52.90
2018-02-27T05:07:47.503Z,52.80
2018-02-27T05:10:26.140Z,53.30
2018-02-27T05:12:57.779Z,53.20
2018-02-27T05:15:39.822Z,52.80
2018-02-27T05:18:11.731Z,52.70
2018-02-27T05:20:39.177Z,52.70
2018-02-27T05:23:06.825Z,52.70
2018-02-27T05:25:34.256Z,52.90
2018-02-27T05:28:02.174Z,52.90
2018-02-27T05:30:30.427Z,54.90
2018-02-27T05:32:57.983Z,54.90
2018-02-27T05:35:26.003Z,53.50
2018-02-27T05:37:53.468Z,53.00
2018-02-27T05:40:21.786Z,53.00
2018-02-27T05:42:49.396Z,53.00
2018-02-27T05:45:16.883Z,53.20
2018-02-27T05:47:44.655Z,53.30
2018-02-27T05:50:12.122Z,53.40
2018-02-27T05:52:40.140Z,53.40
2018-02-27T05:55:08.608Z,53.60
2018-02-27T05:57:36.063Z,53.50
2018-02-27T06:00:04.392Z,53.60
2018-02-27T06:02:31.821Z,53.60
2018-02-27T06:04:59.308Z,53.70
2018-02-27T06:07:26.846Z,53.80
2018-02-27T06:09:54.299Z,53.80
2018-02-27T06:12:21.776Z,53.90
2018-02-27T06:14:50.065Z,54.10
2018-02-27T06:17:17.517Z,54.20
2018-02-27T06:19:44.984Z,54.20
2018-02-27T06:22:12.433Z,54.30
2018-02-27T06:24:39.912Z,54.40
2018-02-27T06:27:08.221Z,54.20
2018-02-27T06:29:35.744Z,54.10
2018-02-27T06:32:03.341Z,54.10
2018-02-27T06:34:31.339Z,54.00
2018-02-27T06:36:58.817Z,54.00
2018-02-27T06:39:26.778Z,54.00
2018-02-27T06:41:54.808Z,54.00
2018-02-27T06:44:22.261Z,54.20
2018-02-27T06:46:49.725Z,54.30
2018-02-27T06:49:17.483Z,54.60
2018-02-27T06:51:46.649Z,54.70
2018-02-27T06:54:14.734Z,55.00
2018-02-27T06:56:43.483Z,54.90
2018-02-27T06:59:11.306Z,55.00
2018-02-27T07:01:38.745Z,55.00
2018-02-27T07:04:06.211Z,54.90
2018-02-27T07:06:33.661Z,54.90
2018-02-27T07:09:01.598Z,54.90
2018-02-27T07:11:29.854Z,54.60
2018-02-27T07:13:57.768Z,54.60
2018-02-27T07:16:25.852Z,54.60
2018-02-27T07:18:53.320Z,54.50
2018-02-27T07:21:20.762Z,54.40
2018-02-27T07:23:48.375Z,54.50
2018-02-27T07:26:15.818Z,54.60
2018-02-27T07:28:43.920Z,54.30
2018-02-27T07:31:12.403Z,54.50
2018-02-27T07:33:41.408Z,54.60
2018-02-27T07:36:10.011Z,54.60
2018-02-27T07:38:37.470Z,54.50
2018-02-27T07:41:05.312Z,54.40
2018-02-27T07:43:32.788Z,54.30
2018-02-27T07:46:00.352Z,54.30
2018-02-27T07:48:29.298Z,54.30
2018-02-27T07:50:57.453Z,54.40
2018-02-27T07:53:24.932Z,54.30
2018-02-27T07:55:53.523Z,53.60
2018-02-27T07:58:22.342Z,53.70
2018-02-27T08:00:49.824Z,53.60
2018-02-27T08:03:17.319Z,53.20
2018-02-27T08:05:46.195Z,53.20
2018-02-27T08:08:13.632Z,53.10
2018-02-27T08:10:41.128Z,53.40
2018-02-27T08:13:09.357Z,53.50
2018-02-27T08:15:37.665Z,53.50
2018-02-27T08:18:05.121Z,53.50
2018-02-27T08:20:33.474Z,53.50
2018-02-27T08:23:00.909Z,52.90
2018-02-27T08:25:28.638Z,52.40
2018-02-27T08:27:57.082Z,52.60
2018-02-27T08:30:24.555Z,52.60
2018-02-27T08:32:53.021Z,52.30
2018-02-27T08:35:20.962Z,51.80
2018-02-27T08:37:48.505Z,51.30
2018-02-27T08:40:16.322Z,51.10
2018-02-27T08:42:43.777Z,50.60
2018-02-27T08:45:12.030Z,49.70
2018-02-27T08:47:39.480Z,50.00
2018-02-27T08:50:07.137Z,50.10
2018-02-27T08:52:35.021Z,50.00
2018-02-27T08:55:02.885Z,49.90
2018-02-27T08:57:30.714Z,49.70
2018-02-27T08:59:58.291Z,48.90
2018-02-27T09:02:25.747Z,48.50
2018-02-27T09:04:53.290Z,48.50
2018-02-27T09:07:20.791Z,48.60
2018-02-27T09:09:48.419Z,48.50
2018-02-27T09:12:17.603Z,48.20
2018-02-27T09:14:45.890Z,47.60
2018-02-27T09:17:13.808Z,47.50
2018-02-27T09:19:42.123Z,46.70
2018-02-27T09:22:09.571Z,46.60
2018-02-27T09:24:37.028Z,46.40
2018-02-27T09:27:04.617Z,46.90
2018-02-27T09:29:33.056Z,46.60
2018-02-27T09:32:01.374Z,46.90
2018-02-27T09:34:31.455Z,46.20
2018-02-27T09:37:01.976Z,46.10
2018-02-27T09:39:30.918Z,45.90
2018-02-27T09:41:59.866Z,45.90
2018-02-27T09:44:28.101Z,45.60
2018-02-27T09:46:55.661Z,45.50
2018-02-27T09:49:25.079Z,45.70
2018-02-27T09:51:53.981Z,46.10
2018-02-27T09:54:22.208Z,46.00
2018-02-27T09:56:50.181Z,46.00
2018-02-27T09:59:19.292Z,46.30
2018-02-27T10:01:46.941Z,47.00
2018-02-27T10:04:16.453Z,46.20
2018-02-27T10:06:46.459Z,46.20
2018-02-27T10:09:21.192Z,46.30
2018-02-27T10:12:05.031Z,46.20
2018-02-27T10:14:32.949Z,46.20
2018-02-27T10:17:00.982Z,46.30
2018-02-27T10:19:28.443Z,45.70
2018-02-27T10:21:56.803Z,45.70
2018-02-27T10:24:24.330Z,46.30
2018-02-27T10:26:51.828Z,46.70
2018-02-27T10:29:19.385Z,46.50
2018-02-27T10:31:47.089Z,46.60
2018-02-27T10:34:15.144Z,46.80
2018-02-27T10:36:44.005Z,44.20
2018-02-27T10:39:12.857Z,44.60
2018-02-27T10:41:40.365Z,43.90
2018-02-27T10:44:08.583Z,43.80
2018-02-27T10:46:36.077Z,43.60
2018-02-27T10:49:03.570Z,43.60
2018-02-27T10:51:32.512Z,42.90
2018-02-27T10:54:00.069Z,42.90
2018-02-27T10:56:28.321Z,42.90
2018-02-27T10:58:55.808Z,43.00
2018-02-27T11:01:24.081Z,43.50
2018-02-27T11:03:51.761Z,43.50
2018-02-27T11:06:19.936Z,43.90
2018-02-27T11:08:48.188Z,44.80
2018-02-27T11:11:15.659Z,44.50
2018-02-27T11:13:44.173Z,44.90
2018-02-27T11:16:12.384Z,44.20
2018-02-27T11:18:40.195Z,44.20
2018-02-27T11:21:07.657Z,44.50
2018-02-27T11:23:35.991Z,46.40
2018-02-27T11:26:03.419Z,46.40
2018-02-27T11:28:31.005Z,45.10
2018-02-27T11:30:58.536Z,44.80
2018-02-27T11:33:25.977Z,44.50
2018-02-27T11:35:54.745Z,43.80
2018-02-27T11:38:23.838Z,44.00
2018-02-27T11:40:51.801Z,44.00
2018-02-27T11:43:19.253Z,43.80
2018-02-27T11:45:47.157Z,43.90
2018-02-27T11:48:15.418Z,44.40
2018-02-27T11:50:43.684Z,44.40
2018-02-27T11:53:11.937Z,43.60
2018-02-27T11:55:40.070Z,43.60
2018-02-27T11:58:07.617Z,43.90
2018-02-27T12:00:36.318Z,44.10
2018-02-27T12:03:03.812Z,44.10
2018-02-27T12:05:31.253Z,44.90
2018-02-27T12:07:58.750Z,44.10
2018-02-27T12:10:26.204Z,42.70
2018-02-27T12:12:55.140Z,42.50
2018-02-27T12:15:22.726Z,42.40
2018-02-27T12:17:50.501Z,43.40
2018-02-27T12:20:18.136Z,44.30
2018-02-27T12:22:45.608Z,45.00
2018-02-27T12:25:13.063Z,45.50
2018-02-27T12:27:40.549Z,46.30
2018-02-27T12:30:08.576Z,46.40
2018-02-27T12:32:36.789Z,45.60
2018-02-27T12:35:04.781Z,45.60
2018-02-27T12:37:32.281Z,45.20
2018-02-27T12:40:00.344Z,44.90
2018-02-27T12:42:27.817Z,44.50
2018-02-27T12:44:55.323Z,44.20
2018-02-27T12:47:23.568Z,44.00
2018-02-27T12:49:51.143Z,44.00
2018-02-27T12:52:19.117Z,44.30
2018-02-27T12:54:48.087Z,44.70
2018-02-27T12:57:15.549Z,45.80
2018-02-27T12:59:43.045Z,45.60
2018-02-27T13:02:10.529Z,45.60
2018-02-27T13:04:38.019Z,44.40
2018-02-27T13:07:05.533Z,43.70
2018-02-27T13:09:32.998Z,44.10
2018-02-27T13:12:01.082Z,43.90
2018-02-27T13:14:28.675Z,44.20
2018-02-27T13:16:56.141Z,43.40
2018-02-27T13:19:24.905Z,41.40
2018-02-27T13:21:52.780Z,41.30
2018-02-27T13:24:20.409Z,39.50
2018-02-27T13:26:47.893Z,39.10
2018-02-27T13:29:15.817Z,37.80
2018-02-27T13:31:43.314Z,36.40
2018-02-27T13:34:11.150Z,35.70
2018-02-27T13:36:39.797Z,34.20
2018-02-27T13:39:09.517Z,34.70
2018-02-27T13:41:37.783Z,34.00
2018-02-27T13:44:06.550Z,34.30
2018-02-27T13:46:34.995Z,33.70
2018-02-27T13:49:04.118Z,31.40
2018-02-27T13:51:32.284Z,30.20
2018-02-27T13:53:59.815Z,30.20
2018-02-27T13:56:28.015Z,30.00
2018-02-27T13:58:57.801Z,31.90
2018-02-27T14:01:25.265Z,32.20
2018-02-27T14:03:52.772Z,30.60
2018-02-27T14:06:20.992Z,30.80
2018-02-27T14:08:48.596Z,30.80
2018-02-27T14:11:16.281Z,31.10
2018-02-27T14:13:44.226Z,31.20
2018-02-27T14:16:11.755Z,31.40
2018-02-27T14:18:39.741Z,32.60
2018-02-27T14:21:07.636Z,33.20
2018-02-27T14:23:35.874Z,33.00
2018-02-27T14:26:03.349Z,33.00
2018-02-27T14:28:30.882Z,31.90
2018-02-27T14:30:58.368Z,31.70
2018-02-27T14:33:25.920Z,30.90
2018-02-27T14:35:53.955Z,30.70
2018-02-27T14:38:21.416Z,30.70
2018-02-27T14:40:49.297Z,30.00
2018-02-27T14:43:16.820Z,28.70
2018-02-27T14:45:44.532Z,27.70
2018-02-27T14:48:11.973Z,28.30
2018-02-27T14:50:40.117Z,28.10
2018-02-27T14:53:07.607Z,27.60
2018-02-27T14:55:35.652Z,26.60
2018-02-27T14:58:03.892Z,26.90
2018-02-27T15:00:32.782Z,27.50
2018-02-27T15:03:01.959Z,27.40
2018-02-27T15:05:30.825Z,27.80
2018-02-27T15:07:58.382Z,27.40
2018-02-27T15:10:25.886Z,26.60
2018-02-27T15:12:55.345Z,26.40
2018-02-27T15:15:23.294Z,26.40
2018-02-27T15:17:51.195Z,26.90
2018-02-27T15:20:18.656Z,26.90
2018-02-27T15:22:46.130Z,26.80
2018-02-27T15:25:14.471Z,26.60
2018-02-27T15:27:42.007Z,26.60
2018-02-27T15:30:10.667Z,26.50
2018-02-27T15:32:38.277Z,26.70
2018-02-27T15:35:06.206Z,26.80
2018-02-27T15:37:33.672Z,27.40
2018-02-27T15:40:01.831Z,27.90
2018-02-27T15:42:29.284Z,28.30
2018-02-27T15:44:57.005Z,28.50
2018-02-27T15:47:24.657Z,28.80
2018-02-27T15:49:53.680Z,28.70
2018-02-27T15:52:21.093Z,28.90
2018-02-27T15:54:49.055Z,29.20
2018-02-27T15:57:16.501Z,29.50
2018-02-27T15:59:44.393Z,29.90
2018-02-27T16:02:11.881Z,30.50
2018-02-27T16:04:40.141Z,31.20
2018-02-27T16:07:07.626Z,31.10
2018-02-27T16:09:35.100Z,31.60
2018-02-27T16:12:03.200Z,31.90
2018-02-27T16:14:30.739Z,32.50
2018-02-27T16:16:58.326Z,34.30
2018-02-27T16:19:26.167Z,36.30
2018-02-27T16:21:53.664Z,38.10
2018-02-27T16:24:22.014Z,39.30
2018-02-27T16:26:49.499Z,40.00
2018-02-27T16:29:17.158Z,40.70
2018-02-27T16:31:44.649Z,41.10
2018-02-27T16:34:12.698Z,41.60
2018-02-27T16:36:40.400Z,42.20
2018-02-27T16:39:08.617Z,42.70
2018-02-27T16:41:36.053Z,43.00
2018-02-27T16:44:03.743Z,43.40
2018-02-27T16:46:31.187Z,43.50
2018-02-27T16:48:59.899Z,43.90
2018-02-27T16:51:28.677Z,44.30
2018-02-27T16:53:56.121Z,44.30
2018-02-27T16:56:23.977Z,44.50
2018-02-27T16:58:51.461Z,44.70
2018-02-27T17:01:19.737Z,45.00
2018-02-27T17:03:47.998Z,45.30
2018-02-27T17:06:15.646Z,45.20
2018-02-27T17:08:43.190Z,45.50
2018-02-27T17:11:10.717Z,45.60
2018-02-27T17:13:38.642Z,45.70
2018-02-27T17:16:06.307Z,45.80
2018-02-27T17:18:35.204Z,46.50
2018-02-27T17:21:03.452Z,46.10
2018-02-27T17:23:31.024Z,46.00
2018-02-27T17:25:59.053Z,45.80
2018-02-27T17:28:26.608Z,45.60
2018-02-27T17:30:54.112Z,45.60
2018-02-27T17:33:22.454Z,45.60
2018-02-27T17:35:50.377Z,45.60
2018-02-27T17:38:18.593Z,45.40
2018-02-27T17:40:46.801Z,45.40
2018-02-27T17:43:14.289Z,45.50
2018-02-27T17:45:43.255Z,45.70
2018-02-27T17:48:12.295Z,45.70
2018-02-27T17:50:39.990Z,45.60
2018-02-27T17:53:07.521Z,45.80
2018-02-27T17:55:35.425Z,45.80
2018-02-27T17:58:02.881Z,46.00
2018-02-27T18:00:30.388Z,46.00
2018-02-27T18:02:58.002Z,46.10
2018-02-27T18:05:26.004Z,46.20
2018-02-27T18:07:54.213Z,46.50
2018-02-27T18:10:21.873Z,46.40
2018-02-27T18:12:50.022Z,46.60
2018-02-27T18:15:17.499Z,46.90
2018-02-27T18:17:45.655Z,47.10
2018-02-27T18:20:13.634Z,47.30
2018-02-27T18:22:41.133Z,47.60
2018-02-27T18:25:08.610Z,47.80
2018-02-27T18:27:36.512Z,48.10
2018-02-27T18:30:04.023Z,48.50
2018-02-27T18:32:31.514Z,48.80
2018-02-27T18:35:00.809Z,49.10
2018-02-27T18:37:29.059Z,49.70
2018-02-27T18:39:57.350Z,49.60
2018-02-27T18:42:26.035Z,50.20
2018-02-27T18:44:54.261Z,50.50
2018-02-27T18:47:21.749Z,50.50
2018-02-27T18:49:49.418Z,50.70
2018-02-27T18:52:16.901Z,50.70
2018-02-27T18:54:45.150Z,51.00
2018-02-27T18:57:12.607Z,51.20
2018-02-27T18:59:41.027Z,51.50
2018-02-27T19:02:09.274Z,51.60
2018-02-27T19:04:37.584Z,51.70
2018-02-27T19:07:05.422Z,51.70
2018-02-27T19:09:33.650Z,52.10
2018-02-27T19:12:01.224Z,52.00
2018-02-27T19:14:29.089Z,52.20
2018-02-27T19:16:58.605Z,52.40
2018-02-27T19:19:26.379Z,52.40
2018-02-27T19:21:54.634Z,52.50
2018-02-27T19:24:22.134Z,52.40
2018-02-27T19:26:50.326Z,52.40
2018-02-27T19:29:18.057Z,52.50
2018-02-27T19:31:46.834Z,52.70
2018-02-27T19:34:15.535Z,52.90
2018-02-27T19:36:44.211Z,52.80
2018-02-27T19:39:13.011Z,53.40
2018-02-27T19:41:40.474Z,53.30
2018-02-27T19:44:07.997Z,53.40
2018-02-27T19:46:36.246Z,53.20
2018-02-27T19:49:03.949Z,52.90
2018-02-27T19:51:32.191Z,52.80
2018-02-27T19:53:59.756Z,52.80
2018-02-27T19:56:28.703Z,52.80
2018-02-27T19:58:56.204Z,52.80
2018-02-27T20:01:23.709Z,52.80
2018-02-27T20:03:51.601Z,52.90
2018-02-27T20:06:19.169Z,52.90
2018-02-27T20:08:46.632Z,52.90
2018-02-27T20:11:14.263Z,53.00
2018-02-27T20:13:42.253Z,53.20
2018-02-27T20:16:09.727Z,53.20
2018-02-27T20:18:37.590Z,53.40
2018-02-27T20:21:05.768Z,53.40
2018-02-27T20:23:38.911Z,53.50
2018-02-27T20:26:06.866Z,53.50
2018-02-27T20:28:39.993Z,53.50
2018-02-27T20:31:07.489Z,53.40
2018-02-27T20:33:35.435Z,53.30
2018-02-27T20:36:03.337Z,53.20
2018-02-27T20:38:37.547Z,53.30
2018-02-27T20:41:06.225Z,53.30
2018-02-27T20:43:34.747Z,53.70
2018-02-27T20:46:02.236Z,53.20
2018-02-27T20:48:29.754Z,53.30
2018-02-27T20:50:57.873Z,53.50
2018-02-27T20:53:26.012Z,53.40
2018-02-27T20:55:54.007Z,53.40
2018-02-27T20:58:22.379Z,53.20
2018-02-27T21:00:49.894Z,52.80
2018-02-27T21:03:18.218Z,52.60
2018-02-27T21:05:46.217Z,52.60
2018-02-27T21:08:13.655Z,52.50
2018-02-27T21:10:41.145Z,52.60
2018-02-27T21:13:09.813Z,52.70
2018-02-27T21:15:37.632Z,52.70
2018-02-27T21:18:06.741Z,52.60
2018-02-27T21:20:34.797Z,52.40
2018-02-27T21:23:02.297Z,52.30
2018-02-27T21:25:30.615Z,52.20
2018-02-27T21:27:58.071Z,52.10
2018-02-27T21:30:25.567Z,52.20
2018-02-27T21:32:53.093Z,52.20
2018-02-27T21:35:21.266Z,52.30
2018-02-27T21:37:48.699Z,52.40
2018-02-27T21:40:16.572Z,52.50
2018-02-27T21:42:44.071Z,52.60
2018-02-27T21:45:12.387Z,52.70
2018-02-27T21:47:39.845Z,52.70
2018-02-27T21:50:08.054Z,53.00
2018-02-27T21:52:38.624Z,52.90
2018-02-27T21:55:06.592Z,53.10
2018-02-27T21:57:34.164Z,53.40
2018-02-27T22:00:01.784Z,53.60
2018-02-27T22:02:29.543Z,53.70
2018-02-27T22:04:57.017Z,53.90
2018-02-27T22:07:24.785Z,53.90
2018-02-27T22:09:52.232Z,54.00
2018-02-27T22:12:19.737Z,54.10
2018-02-27T22:14:48.694Z,54.40
2018-02-27T22:17:17.045Z,54.30
2018-02-27T22:19:45.465Z,54.40
2018-02-27T22:22:13.475Z,54.50
2018-02-27T22:24:41.086Z,54.50
2018-02-27T22:27:09.071Z,54.60
2018-02-27T22:29:36.565Z,54.70
2018-02-27T22:32:05.224Z,54.80
2018-02-27T22:34:34.018Z,54.90
2018-02-27T22:37:02.669Z,54.80
2018-02-27T22:39:30.633Z,54.80
2018-02-27T22:41:58.125Z,54.90
2018-02-27T22:44:27.230Z,55.00
2018-02-27T22:46:54.738Z,54.90
2018-02-27T22:49:22.264Z,55.10
2018-02-27T22:51:49.861Z,55.10
2018-02-27T22:54:17.315Z,55.10
2018-02-27T22:56:45.346Z,55.20
2018-02-27T22:59:12.798Z,55.30
2018-02-27T23:01:40.483Z,55.30
2018-02-27T23:04:08.190Z,55.60
2018-02-27T23:06:35.650Z,55.80
2018-02-27T23:09:04.416Z,56.10
2018-02-27T23:11:31.872Z,56.00
2018-02-27T23:13:59.831Z,56.10
2018-02-27T23:16:27.297Z,55.90
2018-02-27T23:18:55.555Z,55.70
2018-02-27T23:21:23.509Z,55.70
2018-02-27T23:23:56.525Z,55.50
2018-02-27T23:26:24.937Z,55.20
2018-02-27T23:28:54.408Z,54.50
2018-02-27T23:31:23.344Z,54.50
2018-02-27T23:33:53.650Z,54.30
2018-02-27T23:36:22.193Z,54.10
2018-02-27T23:38:49.708Z,54.10
2018-02-27T23:41:17.573Z,53.90
2018-02-27T23:43:45.107Z,53.90
2018-02-27T23:46:12.602Z,53.80
2018-02-27T23:48:40.252Z,53.70
2018-02-27T23:51:07.846Z,53.80
2018-02-27T23:53:35.398Z,53.90
2018-02-27T23:56:03.352Z,53.90
2018-02-27T23:58:31.632Z,54.20
